createdAt,value
2023-01-22T00:01:21.706Z,4.78
2023-01-22T00:03:55.132Z,5.18
2023-01-22T00:06:27.264Z,5.70
2023-01-22T00:09:04.184Z,5.72
2023-01-22T00:11:36.372Z,5.05
2023-01-22T00:14:43.653Z,5.13
2023-01-22T00:17:18.591Z,6.20
2023-01-22T00:19:51.125Z,5.93
2023-01-22T00:22:23.149Z,6.28
2023-01-22T00:24:55.403Z,5.88
2023-01-22T00:27:27.564Z,6.07
2023-01-22T00:30:00.502Z,6.07
2023-01-22T00:32:35.664Z,6.03
2023-01-22T00:35:09.179Z,6.35
2023-01-22T00:37:41.706Z,6.40
2023-01-22T00:40:16.158Z,6.50
2023-01-22T00:42:48.833Z,6.13
2023-01-22T00:45:21.663Z,6.47
2023-01-22T00:47:56.703Z,6.35
2023-01-22T00:50:29.304Z,6.45
2023-01-22T00:53:04.267Z,5.72
2023-01-22T00:55:37.063Z,6.50
2023-01-22T00:58:09.508Z,6.82
2023-01-22T01:00:42.295Z,6.65
2023-01-22T01:03:31.484Z,5.65
2023-01-22T01:06:06.187Z,6.35
2023-01-22T01:08:42.758Z,5.97
2023-01-22T01:11:17.866Z,5.70
2023-01-22T01:13:49.884Z,5.65
2023-01-22T01:17:02.725Z,5.55
2023-01-22T01:19:37.962Z,5.38
2023-01-22T01:22:10.362Z,6.38
2023-01-22T01:24:42.532Z,6.38
2023-01-22T01:27:14.885Z,5.75
2023-01-22T01:29:46.845Z,6.13
2023-01-22T01:32:19.025Z,5.55
2023-01-22T01:34:54.044Z,6.10
2023-01-22T01:37:26.733Z,6.28
2023-01-22T01:39:58.606Z,6.30
2023-01-22T01:42:36.414Z,7.00
2023-01-22T01:45:24.240Z,6.47
2023-01-22T01:48:01.799Z,7.13
2023-01-22T01:50:38.106Z,6.82
2023-01-22T01:53:11.565Z,6.70
2023-01-22T01:55:44.047Z,6.47
2023-01-22T01:58:21.967Z,6.28
2023-01-22T02:00:57.447Z,6.70
2023-01-22T02:03:32.270Z,6.43
2023-01-22T02:06:07.465Z,5.22
2023-01-22T02:08:39.690Z,5.93
2023-01-22T02:11:13.164Z,6.10
2023-01-22T02:13:51.452Z,6.35
2023-01-22T02:16:23.612Z,5.90
2023-01-22T02:18:56.167Z,5.40
2023-01-22T02:21:35.989Z,5.75
2023-01-22T02:24:12.144Z,6.03
2023-01-22T02:26:46.065Z,6.32
2023-01-22T02:29:18.410Z,6.07
2023-01-22T02:31:50.503Z,5.97
2023-01-22T02:34:24.894Z,5.47
2023-01-22T02:36:59.786Z,5.60
2023-01-22T02:39:32.427Z,6.32
2023-01-22T02:42:04.869Z,5.70
2023-01-22T02:44:37.628Z,5.35
2023-01-22T02:47:09.803Z,5.85
2023-01-22T02:49:42.252Z,5.95
2023-01-22T02:52:17.086Z,6.63
2023-01-22T02:54:49.307Z,6.10
2023-01-22T02:57:21.706Z,5.90
2023-01-22T02:59:54.065Z,5.55
2023-01-22T03:02:26.407Z,5.60
2023-01-22T03:05:03.887Z,5.00
2023-01-22T03:07:45.461Z,5.13
2023-01-22T03:10:20.715Z,5.32
2023-01-22T03:13:04.868Z,5.88
2023-01-22T03:15:49.627Z,5.82
2023-01-22T03:18:33.779Z,5.72
2023-01-22T03:21:22.950Z,5.88
2023-01-22T03:23:59.047Z,5.47
2023-01-22T03:26:32.244Z,5.68
2023-01-22T03:29:04.376Z,5.70
2023-01-22T03:31:36.882Z,5.90
2023-01-22T03:34:08.942Z,5.40
2023-01-22T03:36:41.371Z,5.90
2023-01-22T03:39:16.726Z,5.53
2023-01-22T03:41:48.826Z,5.72
2023-01-22T03:44:20.906Z,6.28
2023-01-22T03:46:53.149Z,5.82
2023-01-22T03:49:25.045Z,5.68
2023-01-22T03:51:57.406Z,5.20
2023-01-22T03:54:32.123Z,5.35
2023-01-22T03:57:04.230Z,5.15
2023-01-22T03:59:36.587Z,5.43
2023-01-22T04:02:08.855Z,5.75
2023-01-22T04:04:40.961Z,6.10
2023-01-22T04:07:13.209Z,5.40
2023-01-22T04:09:47.845Z,5.13
2023-01-22T04:12:20.112Z,4.80
2023-01-22T04:14:52.350Z,5.53
2023-01-22T04:17:26.635Z,5.60
2023-01-22T04:19:58.843Z,5.50
2023-01-22T04:22:31.024Z,5.05
2023-01-22T04:25:06.031Z,5.75
2023-01-22T04:27:39.155Z,5.85
2023-01-22T04:30:12.040Z,5.28
2023-01-22T04:32:44.436Z,5.05
2023-01-22T04:35:16.290Z,4.97
2023-01-22T04:37:48.401Z,5.55
2023-01-22T04:40:23.520Z,5.57
2023-01-22T04:42:55.854Z,5.72
2023-01-22T04:45:27.688Z,5.88
2023-01-22T04:48:01.351Z,5.43
2023-01-22T04:50:35.801Z,5.82
2023-01-22T04:53:08.258Z,5.70
2023-01-22T04:55:43.132Z,5.65
2023-01-22T04:58:15.340Z,5.60
2023-01-22T05:00:47.268Z,5.40
2023-01-22T05:03:19.228Z,5.63
2023-01-22T05:05:51.509Z,5.55
2023-01-22T05:08:23.973Z,5.97
2023-01-22T05:10:58.819Z,6.40
2023-01-22T05:13:31.472Z,6.03
2023-01-22T05:16:03.731Z,6.25
2023-01-22T05:18:36.246Z,6.30
2023-01-22T05:21:08.900Z,6.95
2023-01-22T05:23:41.431Z,6.47
2023-01-22T05:26:16.193Z,6.50
2023-01-22T05:28:48.388Z,7.07
2023-01-22T05:31:20.354Z,7.95
2023-01-22T05:33:52.556Z,6.90
2023-01-22T05:36:24.630Z,7.07
2023-01-22T05:38:57.067Z,7.40
2023-01-22T05:41:31.664Z,7.78
2023-01-22T05:44:05.252Z,8.02
2023-01-22T05:46:37.297Z,7.13
2023-01-22T05:49:10.076Z,7.53
2023-01-22T05:51:42.134Z,8.73
2023-01-22T05:54:16.026Z,8.57
2023-01-22T05:56:50.603Z,7.95
2023-01-22T05:59:22.951Z,8.07
2023-01-22T06:01:54.802Z,8.07
2023-01-22T06:04:27.109Z,8.45
2023-01-22T06:06:59.315Z,9.13
2023-01-22T06:09:31.904Z,8.75
2023-01-22T06:12:06.663Z,8.30
2023-01-22T06:14:38.746Z,8.85
2023-01-22T06:17:10.567Z,9.13
2023-01-22T06:19:42.808Z,9.05
2023-01-22T06:22:14.729Z,8.65
2023-01-22T06:24:46.992Z,8.73
2023-01-22T06:27:22.244Z,8.32
2023-01-22T06:29:54.362Z,8.23
2023-01-22T06:32:26.355Z,7.78
2023-01-22T06:34:58.334Z,8.25
2023-01-22T06:37:30.170Z,8.35
2023-01-22T06:40:02.427Z,8.90
2023-01-22T06:42:39.640Z,8.82
2023-01-22T06:45:12.898Z,8.30
2023-01-22T06:47:47.662Z,9.20
2023-01-22T06:50:20.486Z,9.10
2023-01-22T06:52:52.428Z,8.57
2023-01-22T06:55:24.439Z,9.60
2023-01-22T06:58:01.315Z,9.75
2023-01-22T07:00:33.400Z,9.10
2023-01-22T07:03:10.365Z,9.13
2023-01-22T07:05:42.666Z,9.23
2023-01-22T07:08:17.892Z,8.32
2023-01-22T07:10:49.951Z,8.20
2023-01-22T07:13:24.837Z,9.05
2023-01-22T07:15:57.044Z,9.57
2023-01-22T07:18:29.102Z,9.27
2023-01-22T07:21:04.241Z,8.73
2023-01-22T07:23:36.384Z,9.48
2023-01-22T07:26:15.815Z,8.70
2023-01-22T07:28:50.692Z,9.25
2023-01-22T07:34:11.490Z,8.80
2023-01-22T07:36:43.992Z,8.52
2023-01-22T07:39:16.463Z,8.88
2023-01-22T07:41:48.674Z,9.93
2023-01-22T07:44:23.503Z,8.95
2023-01-22T07:46:56.077Z,8.73
2023-01-22T07:49:28.966Z,8.80
2023-01-22T07:52:01.666Z,8.82
2023-01-22T07:54:36.808Z,6.40
2023-01-22T07:57:11.688Z,8.63
2023-01-22T07:59:46.526Z,7.82
2023-01-22T08:02:19.215Z,8.30
2023-01-22T08:04:51.543Z,8.25
2023-01-22T08:07:24.557Z,8.02
2023-01-22T08:09:57.472Z,7.93
2023-01-22T08:12:29.614Z,8.60
2023-01-22T08:15:04.281Z,8.45
2023-01-22T08:17:36.171Z,8.23
2023-01-22T08:20:09.594Z,7.88
2023-01-22T08:22:41.800Z,7.30
2023-01-22T08:25:14.093Z,7.85
2023-01-22T08:27:46.797Z,7.75
2023-01-22T08:30:21.789Z,7.80
2023-01-22T08:32:53.961Z,8.23
2023-01-22T08:35:25.807Z,7.88
2023-01-22T08:37:58.105Z,7.95
2023-01-22T08:40:30.270Z,7.00
2023-01-22T08:43:02.646Z,7.85
2023-01-22T08:45:37.661Z,8.40
2023-01-22T08:48:09.989Z,7.50
2023-01-22T08:50:41.864Z,7.97
2023-01-22T08:53:14.017Z,8.23
2023-01-22T08:55:51.602Z,7.43
2023-01-22T08:58:25.731Z,8.10
2023-01-22T09:01:00.481Z,7.85
2023-01-22T09:03:33.071Z,8.77
2023-01-22T09:06:05.040Z,9.98
2023-01-22T09:08:37.397Z,7.85
2023-01-22T09:11:09.915Z,9.13
2023-01-22T09:13:42.604Z,8.27
2023-01-22T09:16:17.091Z,8.75
2023-01-22T09:18:48.933Z,8.50
2023-01-22T09:21:21.034Z,8.85
2023-01-22T09:23:54.063Z,8.93
2023-01-22T09:26:26.090Z,8.75
2023-01-22T09:28:58.361Z,8.70
2023-01-22T09:31:32.813Z,8.77
2023-01-22T09:34:05.297Z,8.88
2023-01-22T09:36:37.313Z,9.00
2023-01-22T09:39:09.643Z,9.23
2023-01-22T09:41:44.610Z,8.23
2023-01-22T09:44:21.900Z,9.27
2023-01-22T09:47:00.616Z,8.48
2023-01-22T09:49:37.056Z,8.65
2023-01-22T09:52:09.822Z,9.50
2023-01-22T09:54:44.052Z,9.20
2023-01-22T09:57:30.738Z,9.00
2023-01-22T10:00:04.399Z,9.80
2023-01-22T10:02:45.177Z,9.40
2023-01-22T10:05:26.377Z,9.35
2023-01-22T10:08:06.041Z,9.98
2023-01-22T10:10:41.329Z,9.05
2023-01-22T10:13:21.952Z,10.15
2023-01-22T10:15:57.310Z,10.05
2023-01-22T10:18:38.269Z,9.73
2023-01-22T10:21:19.174Z,10.10
2023-01-22T10:23:52.353Z,10.20
2023-01-22T10:26:36.321Z,9.68
2023-01-22T10:29:11.301Z,9.73
2023-01-22T10:31:50.564Z,10.10
2023-01-22T10:34:31.376Z,10.90
2023-01-22T10:37:06.268Z,10.52
2023-01-22T10:39:44.189Z,10.65
2023-01-22T10:42:21.102Z,10.52
2023-01-22T10:44:54.028Z,10.45
2023-01-22T10:47:28.847Z,11.13
2023-01-22T10:50:17.915Z,10.73
2023-01-22T10:52:55.108Z,11.18
2023-01-22T10:55:31.120Z,9.82
2023-01-22T10:58:06.087Z,9.60
2023-01-22T11:01:17.015Z,10.80
2023-01-22T11:03:50.588Z,10.30
2023-01-22T11:06:30.280Z,11.15
2023-01-22T11:09:07.977Z,10.90
2023-01-22T11:11:45.123Z,11.88
2023-01-22T11:14:24.952Z,12.05
2023-01-22T11:17:06.899Z,12.88
2023-01-22T11:19:46.167Z,12.35
2023-01-22T11:22:29.099Z,11.82
2023-01-22T11:25:01.520Z,11.85
2023-01-22T11:28:12.840Z,10.52
2023-01-22T11:31:07.701Z,10.48
2023-01-22T11:34:09.649Z,11.43
2023-01-22T11:36:48.628Z,9.65
2023-01-22T11:39:37.176Z,10.82
2023-01-22T11:42:23.779Z,9.27
2023-01-22T11:45:08.774Z,9.75
2023-01-22T11:48:04.370Z,9.88
2023-01-22T11:50:44.599Z,10.85
2023-01-22T11:53:35.027Z,10.75
2023-01-22T11:56:33.345Z,10.48
2023-01-22T11:59:12.149Z,10.68
2023-01-22T12:02:05.848Z,10.75
2023-01-22T12:05:09.149Z,11.50
2023-01-22T12:08:02.500Z,11.27
2023-01-22T12:10:55.095Z,14.20
2023-01-22T12:13:51.487Z,10.90
2023-01-22T12:16:30.628Z,10.07
2023-01-22T12:19:27.111Z,10.02
2023-01-22T12:22:07.407Z,11.18
2023-01-22T12:24:45.993Z,11.75
2023-01-22T12:27:23.400Z,12.40
2023-01-22T12:30:05.960Z,11.20
2023-01-22T12:32:41.303Z,13.70
2023-01-22T12:35:19.742Z,13.27
2023-01-22T12:38:00.707Z,13.30
2023-01-22T12:41:07.083Z,13.30
2023-01-22T12:43:47.138Z,12.50
2023-01-22T12:46:30.012Z,13.50
2023-01-22T12:49:08.805Z,12.77
2023-01-22T12:51:43.419Z,13.55
2023-01-22T12:54:24.994Z,13.45
2023-01-22T12:57:00.010Z,13.27
2023-01-22T12:59:49.012Z,14.18
2023-01-22T13:02:39.684Z,13.13
2023-01-22T13:05:39.004Z,12.60
2023-01-22T13:08:38.174Z,14.95
2023-01-22T13:11:20.985Z,13.80
2023-01-22T13:14:14.846Z,15.15
2023-01-22T13:16:56.853Z,14.90
2023-01-22T13:19:55.641Z,13.18
2023-01-22T13:22:31.125Z,14.80
2023-01-22T13:25:03.344Z,13.70
2023-01-22T13:27:39.386Z,12.85
2023-01-22T13:30:23.210Z,25.10
2023-01-22T13:33:27.348Z,15.05
2023-01-22T13:36:14.851Z,13.60
2023-01-22T13:38:55.331Z,16.55
2023-01-22T13:41:34.218Z,14.23
2023-01-22T13:44:10.906Z,14.93
2023-01-22T13:46:44.608Z,14.00
2023-01-22T13:49:25.533Z,16.08
2023-01-22T13:52:06.012Z,15.35
2023-01-22T13:54:45.243Z,16.52
2023-01-22T13:57:23.897Z,17.35
2023-01-22T13:59:58.224Z,16.48
2023-01-22T14:02:36.692Z,16.77
2023-01-22T14:05:22.106Z,17.10
2023-01-22T14:08:08.651Z,15.52
2023-01-22T14:10:42.403Z,16.02
2023-01-22T14:13:16.629Z,15.65
2023-01-22T14:15:59.818Z,16.38
2023-01-22T14:18:32.203Z,15.07
2023-01-22T14:21:05.163Z,17.70
2023-01-22T14:23:43.317Z,16.50
2023-01-22T14:26:16.211Z,16.40
2023-01-22T14:28:48.322Z,15.43
2023-01-22T14:31:21.084Z,16.25
2023-01-22T14:33:53.370Z,16.17
2023-01-22T14:36:26.223Z,16.75
2023-01-22T14:39:02.586Z,16.67
2023-01-22T14:41:35.149Z,17.10
2023-01-22T14:44:08.008Z,16.60
2023-01-22T14:46:41.740Z,13.95
2023-01-22T14:49:13.532Z,18.00
2023-01-22T14:51:45.739Z,16.75
2023-01-22T14:54:20.453Z,16.10
2023-01-22T14:56:52.498Z,16.20
2023-01-22T14:59:31.789Z,17.35
2023-01-22T15:02:06.407Z,17.88
2023-01-22T15:04:38.321Z,18.48
2023-01-22T15:07:10.687Z,16.60
2023-01-22T15:09:45.521Z,15.32
2023-01-22T15:12:17.771Z,17.17
2023-01-22T15:14:49.764Z,16.05
2023-01-22T15:17:22.030Z,17.30
2023-01-22T15:19:54.133Z,17.65
2023-01-22T15:22:26.377Z,18.73
2023-01-22T15:25:00.936Z,16.67
2023-01-22T15:27:33.188Z,16.08
2023-01-22T15:30:06.652Z,15.35
2023-01-22T15:32:38.931Z,16.98
2023-01-22T15:35:11.696Z,17.50
2023-01-22T15:37:43.850Z,17.23
2023-01-22T15:40:19.658Z,18.30
2023-01-22T15:42:52.477Z,18.40
2023-01-22T15:45:24.459Z,18.10
2023-01-22T15:47:56.848Z,17.95
2023-01-22T15:50:28.857Z,17.38
2023-01-22T15:53:02.471Z,19.88
2023-01-22T15:55:37.360Z,18.85
2023-01-22T15:58:09.644Z,18.85
2023-01-22T16:00:41.768Z,19.63
2023-01-22T16:03:14.200Z,20.05
2023-01-22T16:05:46.182Z,20.38
2023-01-22T16:08:18.306Z,19.45
2023-01-22T16:10:53.045Z,18.88
2023-01-22T16:13:25.306Z,17.85
2023-01-22T16:16:01.454Z,18.33
2023-01-22T16:18:36.566Z,18.00
2023-01-22T16:21:09.761Z,18.65
2023-01-22T16:23:44.117Z,19.35
2023-01-22T16:26:21.299Z,19.20
2023-01-22T16:28:55.968Z,20.20
2023-01-22T16:31:29.825Z,19.38
2023-01-22T16:34:04.016Z,18.30
2023-01-22T16:36:36.141Z,18.83
2023-01-22T16:39:08.913Z,19.50
2023-01-22T16:41:43.563Z,18.67
2023-01-22T16:44:17.662Z,18.92
2023-01-22T16:46:52.777Z,17.63
2023-01-22T16:49:27.618Z,18.85
2023-01-22T16:52:16.584Z,17.00
2023-01-22T16:54:54.297Z,16.48
2023-01-22T16:57:29.217Z,17.70
2023-01-22T17:00:01.779Z,17.20
2023-01-22T17:02:34.225Z,18.73
2023-01-22T17:05:13.138Z,17.85
2023-01-22T17:07:45.486Z,16.92
2023-01-22T17:10:18.508Z,18.42
2023-01-22T17:12:53.758Z,17.23
2023-01-22T17:15:26.669Z,17.75
2023-01-22T17:17:59.978Z,17.55
2023-01-22T17:20:32.781Z,16.15
2023-01-22T17:23:04.877Z,17.45
2023-01-22T17:25:37.500Z,15.80
2023-01-22T17:28:12.484Z,16.40
2023-01-22T17:30:45.162Z,15.93
2023-01-22T17:33:22.605Z,15.00
2023-01-22T17:36:05.442Z,15.30
2023-01-22T17:38:39.825Z,15.77
2023-01-22T17:41:14.495Z,15.27
2023-01-22T17:43:52.330Z,15.40
2023-01-22T17:46:29.206Z,14.98
2023-01-22T17:49:04.919Z,14.80
2023-01-22T17:51:38.693Z,14.35
2023-01-22T17:54:10.652Z,16.02
2023-01-22T17:56:43.411Z,14.07
2023-01-22T17:59:18.366Z,14.52
2023-01-22T18:01:51.944Z,14.55
2023-01-22T18:04:24.214Z,13.55
2023-01-22T18:06:56.437Z,15.13
2023-01-22T18:09:28.416Z,16.40
2023-01-22T18:12:00.606Z,15.20
2023-01-22T18:14:36.103Z,15.30
2023-01-22T18:17:08.423Z,15.77
2023-01-22T18:19:41.500Z,17.45
2023-01-22T18:22:15.575Z,16.60
2023-01-22T18:24:47.971Z,15.82
2023-01-22T18:27:20.087Z,16.77
2023-01-22T18:29:56.157Z,17.02
2023-01-22T18:32:27.971Z,17.30
2023-01-22T18:34:59.710Z,17.58
2023-01-22T18:37:34.192Z,18.15
2023-01-22T18:40:05.536Z,17.73
2023-01-22T18:42:37.800Z,17.48
2023-01-22T18:45:15.245Z,17.05
2023-01-22T18:47:47.102Z,17.08
2023-01-22T18:50:19.745Z,17.02
2023-01-22T18:52:51.884Z,17.23
2023-01-22T18:55:24.529Z,19.00
2023-01-22T18:58:02.717Z,16.27
2023-01-22T19:00:37.994Z,17.13
2023-01-22T19:03:12.653Z,17.42
2023-01-22T19:05:47.589Z,18.85
2023-01-22T19:08:22.622Z,17.15
2023-01-22T19:10:54.546Z,17.77
2023-01-22T19:13:29.479Z,17.05
2023-01-22T19:16:11.114Z,17.45
2023-01-22T19:18:47.061Z,16.80
2023-01-22T19:21:22.274Z,15.43
2023-01-22T19:23:56.210Z,16.15
2023-01-22T19:26:30.749Z,16.10
2023-01-22T19:29:04.933Z,17.20
2023-01-22T19:31:43.955Z,16.20
2023-01-22T19:34:23.787Z,17.80
2023-01-22T19:36:58.546Z,16.45
2023-01-22T19:39:30.815Z,18.15
2023-01-22T19:42:07.266Z,18.27
2023-01-22T19:44:40.327Z,17.15
2023-01-22T19:47:15.706Z,18.40
2023-01-22T19:49:47.846Z,17.00
2023-01-22T19:52:19.551Z,17.63
2023-01-22T19:54:51.646Z,15.50
2023-01-22T19:57:23.505Z,17.02
2023-01-22T19:59:58.605Z,14.95
2023-01-22T20:02:32.566Z,15.85
2023-01-22T20:05:04.646Z,16.38
2023-01-22T20:07:36.866Z,16.65
2023-01-22T20:10:09.670Z,16.40
2023-01-22T20:12:43.954Z,16.70
2023-01-22T20:15:16.786Z,16.77
2023-01-22T20:17:50.935Z,18.58
2023-01-22T20:20:23.033Z,17.23
2023-01-22T20:22:56.058Z,17.70
2023-01-22T20:25:31.222Z,16.38
2023-01-22T20:28:03.485Z,17.70
2023-01-22T20:30:35.488Z,23.55
2023-01-22T20:33:11.399Z,17.42
2023-01-22T20:35:47.231Z,16.40
2023-01-22T20:38:18.883Z,16.88
2023-01-22T20:40:51.306Z,16.30
2023-01-22T20:43:23.557Z,16.10
2023-01-22T20:46:04.531Z,16.48
2023-01-22T20:48:38.941Z,14.73
2023-01-22T20:51:15.825Z,16.63
2023-01-22T20:53:48.568Z,15.65
2023-01-22T20:56:23.457Z,16.35
2023-01-22T20:58:59.568Z,15.70
2023-01-22T21:01:31.803Z,15.55
2023-01-22T21:04:06.234Z,16.85
2023-01-22T21:06:39.763Z,15.88
2023-01-22T21:09:14.472Z,15.20
2023-01-22T21:11:46.787Z,16.10
2023-01-22T21:14:20.911Z,16.20
2023-01-22T21:16:52.846Z,16.70
2023-01-22T21:19:32.508Z,16.38
2023-01-22T21:22:06.832Z,15.82
2023-01-22T21:24:38.421Z,16.70
2023-01-22T21:27:10.057Z,16.58
2023-01-22T21:29:42.391Z,18.02
2023-01-22T21:32:15.422Z,16.58
2023-01-22T21:34:49.298Z,16.95
2023-01-22T21:37:20.947Z,16.63
2023-01-22T21:39:52.401Z,16.00
2023-01-22T21:42:36.383Z,17.38
2023-01-22T21:45:21.527Z,18.17
2023-01-22T21:47:53.813Z,18.10
2023-01-22T21:50:27.711Z,18.55
2023-01-22T21:52:59.352Z,19.52
2023-01-22T21:55:32.008Z,17.02
2023-01-22T21:58:04.025Z,17.58
2023-01-22T22:00:38.226Z,17.80
2023-01-22T22:03:10.368Z,18.65
2023-01-22T22:05:46.258Z,18.45
2023-01-22T22:08:18.600Z,18.65
2023-01-22T22:10:52.709Z,18.60
2023-01-22T22:13:27.716Z,17.23
2023-01-22T22:16:02.634Z,18.65
2023-01-22T22:18:35.044Z,17.98
2023-01-22T22:21:11.755Z,18.30
2023-01-22T22:23:45.395Z,18.65
2023-01-22T22:26:18.215Z,18.30
2023-01-22T22:28:50.391Z,18.15
2023-01-22T22:31:24.871Z,17.40
2023-01-22T22:33:59.114Z,18.02
2023-01-22T22:36:35.011Z,18.13
2023-01-22T22:39:09.413Z,19.63
2023-01-22T22:41:41.396Z,19.08
2023-01-22T22:44:15.500Z,19.23
2023-01-22T22:46:47.160Z,18.13
2023-01-22T22:49:19.144Z,18.00
2023-01-22T22:51:53.605Z,18.50
2023-01-22T22:54:25.569Z,19.98
2023-01-22T22:56:57.022Z,18.85
2023-01-22T22:59:29.043Z,19.05
2023-01-22T23:02:00.687Z,18.60
2023-01-22T23:04:32.726Z,19.35
2023-01-22T23:07:07.079Z,18.33
2023-01-22T23:09:39.112Z,18.60
2023-01-22T23:12:10.893Z,18.50
2023-01-22T23:14:42.998Z,18.27
2023-01-22T23:17:14.688Z,18.67
2023-01-22T23:19:46.716Z,18.83
2023-01-22T23:22:21.526Z,18.17
2023-01-22T23:24:53.925Z,19.25
2023-01-22T23:27:26.346Z,17.75
2023-01-22T23:29:59.274Z,18.35
2023-01-22T23:32:33.026Z,18.20
2023-01-22T23:35:05.606Z,18.40
2023-01-22T23:37:40.396Z,18.55
2023-01-22T23:40:14.630Z,19.15
2023-01-22T23:42:51.206Z,18.52
2023-01-22T23:45:23.708Z,19.00
2023-01-22T23:47:56.411Z,19.63
2023-01-22T23:50:29.168Z,18.77
2023-01-22T23:53:04.420Z,18.08
2023-01-22T23:55:36.765Z,18.85
2023-01-22T23:58:08.827Z,19.42
